sensor_id;sensor_type;location;lat;lon;timestamp;temperature;humidity
7218;DHT22;3650;53.580;10.094;2022-10-16T00:02:14;16.80;94.70
7218;DHT22;3650;53.580;10.094;2022-10-16T00:04:40;16.80;94.70
7218;DHT22;3650;53.580;10.094;2022-10-16T00:07:07;16.80;94.60
7218;DHT22;3650;53.580;10.094;2022-10-16T00:09:34;16.80;94.60
7218;DHT22;3650;53.580;10.094;2022-10-16T00:12:02;16.80;94.40
7218;DHT22;3650;53.580;10.094;2022-10-16T00:14:32;16.80;94.10
7218;DHT22;3650;53.580;10.094;2022-10-16T00:16:59;16.70;93.70
7218;DHT22;3650;53.580;10.094;2022-10-16T00:19:26;16.70;93.50
7218;DHT22;3650;53.580;10.094;2022-10-16T00:21:52;16.70;93.30
7218;DHT22;3650;53.580;10.094;2022-10-16T00:24:19;16.70;93.30
7218;DHT22;3650;53.580;10.094;2022-10-16T00:26:49;16.70;93.10
7218;DHT22;3650;53.580;10.094;2022-10-16T00:29:17;16.70;93.30
7218;DHT22;3650;53.580;10.094;2022-10-16T00:31:44;16.70;92.80
7218;DHT22;3650;53.580;10.094;2022-10-16T00:34:11;16.60;92.60
7218;DHT22;3650;53.580;10.094;2022-10-16T00:36:38;16.60;92.30
7218;DHT22;3650;53.580;10.094;2022-10-16T00:39:04;16.60;92.10
7218;DHT22;3650;53.580;10.094;2022-10-16T00:41:32;16.60;92.00
7218;DHT22;3650;53.580;10.094;2022-10-16T00:44:00;16.60;91.60
7218;DHT22;3650;53.580;10.094;2022-10-16T00:46:35;16.60;91.70
7218;DHT22;3650;53.580;10.094;2022-10-16T00:49:05;16.60;91.60
7218;DHT22;3650;53.580;10.094;2022-10-16T00:51:34;16.60;91.40
7218;DHT22;3650;53.580;10.094;2022-10-16T00:54:02;16.60;91.20
7218;DHT22;3650;53.580;10.094;2022-10-16T00:56:31;16.50;91.00
7218;DHT22;3650;53.580;10.094;2022-10-16T00:58:59;16.50;91.20
7218;DHT22;3650;53.580;10.094;2022-10-16T01:01:29;16.50;91.60
7218;DHT22;3650;53.580;10.094;2022-10-16T01:03:56;16.50;91.80
7218;DHT22;3650;53.580;10.094;2022-10-16T01:06:25;16.50;92.20
7218;DHT22;3650;53.580;10.094;2022-10-16T01:09:07;16.50;92.40
7218;DHT22;3650;53.580;10.094;2022-10-16T01:11:41;16.50;92.50
7218;DHT22;3650;53.580;10.094;2022-10-16T01:14:15;16.40;92.50
7218;DHT22;3650;53.580;10.094;2022-10-16T01:16:50;16.40;92.60
7218;DHT22;3650;53.580;10.094;2022-10-16T01:19:27;16.40;92.70
7218;DHT22;3650;53.580;10.094;2022-10-16T01:21:58;16.40;92.90
7218;DHT22;3650;53.580;10.094;2022-10-16T01:24:32;16.40;92.90
7218;DHT22;3650;53.580;10.094;2022-10-16T01:27:11;16.30;93.30
7218;DHT22;3650;53.580;10.094;2022-10-16T01:29:42;16.30;93.10
7218;DHT22;3650;53.580;10.094;2022-10-16T01:32:16;16.30;93.30
7218;DHT22;3650;53.580;10.094;2022-10-16T01:34:49;16.30;93.40
7218;DHT22;3650;53.580;10.094;2022-10-16T01:37:22;16.30;93.40
7218;DHT22;3650;53.580;10.094;2022-10-16T01:39:54;16.30;93.30
7218;DHT22;3650;53.580;10.094;2022-10-16T01:42:26;16.20;93.10
7218;DHT22;3650;53.580;10.094;2022-10-16T01:44:56;16.20;93.00
7218;DHT22;3650;53.580;10.094;2022-10-16T01:47:25;16.20;92.80
7218;DHT22;3650;53.580;10.094;2022-10-16T01:49:54;16.20;92.60
7218;DHT22;3650;53.580;10.094;2022-10-16T01:52:25;16.20;92.40
7218;DHT22;3650;53.580;10.094;2022-10-16T01:54:55;16.10;92.20
7218;DHT22;3650;53.580;10.094;2022-10-16T01:57:24;16.10;92.10
7218;DHT22;3650;53.580;10.094;2022-10-16T01:59:56;16.10;92.00
7218;DHT22;3650;53.580;10.094;2022-10-16T02:02:27;16.10;91.90
7218;DHT22;3650;53.580;10.094;2022-10-16T02:04:58;16.10;91.80
7218;DHT22;3650;53.580;10.094;2022-10-16T02:07:26;16.10;91.70
7218;DHT22;3650;53.580;10.094;2022-10-16T02:09:54;16.10;91.40
7218;DHT22;3650;53.580;10.094;2022-10-16T02:12:25;16.10;91.40
7218;DHT22;3650;53.580;10.094;2022-10-16T02:14:53;16.10;91.40
7218;DHT22;3650;53.580;10.094;2022-10-16T02:17:20;16.10;91.20
7218;DHT22;3650;53.580;10.094;2022-10-16T02:19:49;16.10;91.10
7218;DHT22;3650;53.580;10.094;2022-10-16T02:22:24;16.00;90.90
7218;DHT22;3650;53.580;10.094;2022-10-16T02:24:54;16.00;90.90
7218;DHT22;3650;53.580;10.094;2022-10-16T02:27:29;16.00;90.70
7218;DHT22;3650;53.580;10.094;2022-10-16T02:30:03;16.00;90.50
7218;DHT22;3650;53.580;10.094;2022-10-16T02:32:34;16.00;90.60
7218;DHT22;3650;53.580;10.094;2022-10-16T02:35:03;16.00;90.60
7218;DHT22;3650;53.580;10.094;2022-10-16T02:37:31;16.00;90.60
7218;DHT22;3650;53.580;10.094;2022-10-16T02:39:58;16.00;90.60
7218;DHT22;3650;53.580;10.094;2022-10-16T02:42:33;16.00;90.70
7218;DHT22;3650;53.580;10.094;2022-10-16T02:45:00;15.90;90.70
7218;DHT22;3650;53.580;10.094;2022-10-16T02:47:27;15.90;90.90
7218;DHT22;3650;53.580;10.094;2022-10-16T02:49:53;15.90;90.90
7218;DHT22;3650;53.580;10.094;2022-10-16T02:52:20;15.90;91.00
7218;DHT22;3650;53.580;10.094;2022-10-16T02:54:47;15.90;91.00
7218;DHT22;3650;53.580;10.094;2022-10-16T02:57:14;15.80;91.00
7218;DHT22;3650;53.580;10.094;2022-10-16T02:59:42;15.80;91.00
7218;DHT22;3650;53.580;10.094;2022-10-16T03:02:09;15.80;91.00
7218;DHT22;3650;53.580;10.094;2022-10-16T03:04:36;15.80;91.00
7218;DHT22;3650;53.580;10.094;2022-10-16T03:07:03;15.70;90.90
7218;DHT22;3650;53.580;10.094;2022-10-16T03:09:30;15.70;90.90
7218;DHT22;3650;53.580;10.094;2022-10-16T03:11:57;15.70;91.00
7218;DHT22;3650;53.580;10.094;2022-10-16T03:14:24;15.60;91.00
7218;DHT22;3650;53.580;10.094;2022-10-16T03:16:52;15.60;91.00
7218;DHT22;3650;53.580;10.094;2022-10-16T03:19:19;15.60;91.10
7218;DHT22;3650;53.580;10.094;2022-10-16T03:21:45;15.50;91.00
7218;DHT22;3650;53.580;10.094;2022-10-16T03:24:12;15.50;91.10
7218;DHT22;3650;53.580;10.094;2022-10-16T03:26:39;15.50;91.10
7218;DHT22;3650;53.580;10.094;2022-10-16T03:29:06;15.50;91.20
7218;DHT22;3650;53.580;10.094;2022-10-16T03:31:33;15.40;91.20
7218;DHT22;3650;53.580;10.094;2022-10-16T03:34:01;15.40;91.30
7218;DHT22;3650;53.580;10.094;2022-10-16T03:36:28;15.40;91.40
7218;DHT22;3650;53.580;10.094;2022-10-16T03:38:55;15.40;91.30
7218;DHT22;3650;53.580;10.094;2022-10-16T03:41:21;15.30;91.30
7218;DHT22;3650;53.580;10.094;2022-10-16T03:43:48;15.30;91.20
7218;DHT22;3650;53.580;10.094;2022-10-16T03:46:15;15.30;91.30
7218;DHT22;3650;53.580;10.094;2022-10-16T03:48:42;15.30;91.40
7218;DHT22;3650;53.580;10.094;2022-10-16T03:51:10;15.30;91.40
7218;DHT22;3650;53.580;10.094;2022-10-16T03:53:37;15.20;91.40
7218;DHT22;3650;53.580;10.094;2022-10-16T03:56:04;15.20;91.40
7218;DHT22;3650;53.580;10.094;2022-10-16T03:58:31;15.20;91.60
7218;DHT22;3650;53.580;10.094;2022-10-16T04:00:57;15.20;91.60
7218;DHT22;3650;53.580;10.094;2022-10-16T04:03:24;15.20;91.60
7218;DHT22;3650;53.580;10.094;2022-10-16T04:05:51;15.20;91.60
7218;DHT22;3650;53.580;10.094;2022-10-16T04:08:19;15.20;91.70
7218;DHT22;3650;53.580;10.094;2022-10-16T04:10:46;15.20;91.60
7218;DHT22;3650;53.580;10.094;2022-10-16T04:13:13;15.20;91.70
7218;DHT22;3650;53.580;10.094;2022-10-16T04:15:40;15.20;91.80
7218;DHT22;3650;53.580;10.094;2022-10-16T04:18:07;15.20;91.70
7218;DHT22;3650;53.580;10.094;2022-10-16T04:20:34;15.10;91.60
7218;DHT22;3650;53.580;10.094;2022-10-16T04:23:01;15.10;91.60
7218;DHT22;3650;53.580;10.094;2022-10-16T04:25:29;15.10;91.60
7218;DHT22;3650;53.580;10.094;2022-10-16T04:27:56;15.10;91.60
7218;DHT22;3650;53.580;10.094;2022-10-16T04:30:24;15.20;91.60
7218;DHT22;3650;53.580;10.094;2022-10-16T04:32:52;15.10;91.60
7218;DHT22;3650;53.580;10.094;2022-10-16T04:35:20;15.10;91.50
7218;DHT22;3650;53.580;10.094;2022-10-16T04:37:47;15.10;91.50
7218;DHT22;3650;53.580;10.094;2022-10-16T04:40:14;15.10;91.40
7218;DHT22;3650;53.580;10.094;2022-10-16T04:42:42;15.10;91.40
7218;DHT22;3650;53.580;10.094;2022-10-16T04:45:09;15.10;91.40
7218;DHT22;3650;53.580;10.094;2022-10-16T04:47:36;15.10;91.40
7218;DHT22;3650;53.580;10.094;2022-10-16T04:50:03;15.20;91.50
7218;DHT22;3650;53.580;10.094;2022-10-16T04:52:30;15.10;91.20
7218;DHT22;3650;53.580;10.094;2022-10-16T04:54:57;15.10;91.20
7218;DHT22;3650;53.580;10.094;2022-10-16T04:57:27;15.10;91.30
7218;DHT22;3650;53.580;10.094;2022-10-16T04:59:55;15.10;91.30
7218;DHT22;3650;53.580;10.094;2022-10-16T05:02:22;15.10;91.30
7218;DHT22;3650;53.580;10.094;2022-10-16T05:04:49;15.10;91.40
7218;DHT22;3650;53.580;10.094;2022-10-16T05:07:15;15.10;91.50
7218;DHT22;3650;53.580;10.094;2022-10-16T05:09:42;15.10;91.40
7218;DHT22;3650;53.580;10.094;2022-10-16T05:12:09;15.10;91.40
7218;DHT22;3650;53.580;10.094;2022-10-16T05:14:36;15.10;91.30
7218;DHT22;3650;53.580;10.094;2022-10-16T05:17:04;15.00;91.30
7218;DHT22;3650;53.580;10.094;2022-10-16T05:19:31;15.00;91.40
7218;DHT22;3650;53.580;10.094;2022-10-16T05:21:58;15.10;91.40
7218;DHT22;3650;53.580;10.094;2022-10-16T05:24:24;15.00;91.50
7218;DHT22;3650;53.580;10.094;2022-10-16T05:26:51;15.00;91.60
7218;DHT22;3650;53.580;10.094;2022-10-16T05:29:19;15.00;91.60
7218;DHT22;3650;53.580;10.094;2022-10-16T05:31:45;15.00;91.60
7218;DHT22;3650;53.580;10.094;2022-10-16T05:34:14;15.00;91.70
7218;DHT22;3650;53.580;10.094;2022-10-16T05:36:40;15.00;91.80
7218;DHT22;3650;53.580;10.094;2022-10-16T05:39:07;15.00;91.80
7218;DHT22;3650;53.580;10.094;2022-10-16T05:41:34;15.00;91.80
7218;DHT22;3650;53.580;10.094;2022-10-16T05:44:04;15.00;91.80
7218;DHT22;3650;53.580;10.094;2022-10-16T05:46:30;15.00;91.70
7218;DHT22;3650;53.580;10.094;2022-10-16T05:48:57;15.00;91.80
7218;DHT22;3650;53.580;10.094;2022-10-16T05:51:25;15.00;91.90
7218;DHT22;3650;53.580;10.094;2022-10-16T05:53:52;15.00;91.90
7218;DHT22;3650;53.580;10.094;2022-10-16T05:56:19;15.00;92.00
7218;DHT22;3650;53.580;10.094;2022-10-16T05:58:46;15.00;91.90
7218;DHT22;3650;53.580;10.094;2022-10-16T06:01:14;15.00;92.00
7218;DHT22;3650;53.580;10.094;2022-10-16T06:03:41;15.00;92.10
7218;DHT22;3650;53.580;10.094;2022-10-16T06:06:09;14.90;92.10
7218;DHT22;3650;53.580;10.094;2022-10-16T06:08:38;15.00;92.10
7218;DHT22;3650;53.580;10.094;2022-10-16T06:11:07;14.90;92.10
7218;DHT22;3650;53.580;10.094;2022-10-16T06:13:34;15.00;92.10
7218;DHT22;3650;53.580;10.094;2022-10-16T06:16:02;15.00;92.20
7218;DHT22;3650;53.580;10.094;2022-10-16T06:18:30;15.00;92.10
7218;DHT22;3650;53.580;10.094;2022-10-16T06:20:57;15.00;92.30
7218;DHT22;3650;53.580;10.094;2022-10-16T06:23:25;15.00;92.30
7218;DHT22;3650;53.580;10.094;2022-10-16T06:25:53;15.00;92.30
7218;DHT22;3650;53.580;10.094;2022-10-16T06:28:20;15.00;92.30
7218;DHT22;3650;53.580;10.094;2022-10-16T06:30:46;14.90;92.30
7218;DHT22;3650;53.580;10.094;2022-10-16T06:33:13;15.00;92.40
7218;DHT22;3650;53.580;10.094;2022-10-16T06:35:40;15.00;92.50
7218;DHT22;3650;53.580;10.094;2022-10-16T06:38:07;15.00;92.50
7218;DHT22;3650;53.580;10.094;2022-10-16T06:40:33;15.00;92.60
7218;DHT22;3650;53.580;10.094;2022-10-16T06:43:02;15.00;92.70
7218;DHT22;3650;53.580;10.094;2022-10-16T06:45:28;15.00;92.80
7218;DHT22;3650;53.580;10.094;2022-10-16T06:47:55;15.00;92.80
7218;DHT22;3650;53.580;10.094;2022-10-16T06:50:22;15.10;93.00
7218;DHT22;3650;53.580;10.094;2022-10-16T06:52:49;15.10;93.10
7218;DHT22;3650;53.580;10.094;2022-10-16T06:55:16;15.10;93.10
7218;DHT22;3650;53.580;10.094;2022-10-16T06:57:43;15.10;93.00
7218;DHT22;3650;53.580;10.094;2022-10-16T07:00:14;15.10;93.00
7218;DHT22;3650;53.580;10.094;2022-10-16T07:02:41;15.10;93.00
7218;DHT22;3650;53.580;10.094;2022-10-16T07:05:08;15.10;93.10
7218;DHT22;3650;53.580;10.094;2022-10-16T07:07:35;15.20;93.20
7218;DHT22;3650;53.580;10.094;2022-10-16T07:10:02;15.20;93.30
7218;DHT22;3650;53.580;10.094;2022-10-16T07:12:29;15.20;93.40
7218;DHT22;3650;53.580;10.094;2022-10-16T07:14:55;15.20;93.50
7218;DHT22;3650;53.580;10.094;2022-10-16T07:17:24;15.30;93.70
7218;DHT22;3650;53.580;10.094;2022-10-16T07:19:50;15.30;93.90
7218;DHT22;3650;53.580;10.094;2022-10-16T07:22:18;15.30;94.00
7218;DHT22;3650;53.580;10.094;2022-10-16T07:24:45;15.30;94.10
7218;DHT22;3650;53.580;10.094;2022-10-16T07:27:12;15.40;94.30
7218;DHT22;3650;53.580;10.094;2022-10-16T07:29:41;15.40;94.30
7218;DHT22;3650;53.580;10.094;2022-10-16T07:32:07;15.50;94.20
7218;DHT22;3650;53.580;10.094;2022-10-16T07:34:35;15.50;94.30
7218;DHT22;3650;53.580;10.094;2022-10-16T07:37:02;15.50;94.30
7218;DHT22;3650;53.580;10.094;2022-10-16T07:39:29;15.50;94.10
7218;DHT22;3650;53.580;10.094;2022-10-16T07:41:56;15.60;94.40
7218;DHT22;3650;53.580;10.094;2022-10-16T07:44:22;15.60;94.00
7218;DHT22;3650;53.580;10.094;2022-10-16T07:46:49;15.60;94.10
7218;DHT22;3650;53.580;10.094;2022-10-16T07:49:16;15.60;94.20
7218;DHT22;3650;53.580;10.094;2022-10-16T07:51:44;15.70;94.20
7218;DHT22;3650;53.580;10.094;2022-10-16T07:54:11;15.70;94.10
7218;DHT22;3650;53.580;10.094;2022-10-16T07:56:38;15.70;94.10
7218;DHT22;3650;53.580;10.094;2022-10-16T07:59:04;15.80;94.20
7218;DHT22;3650;53.580;10.094;2022-10-16T08:01:31;15.80;94.20
7218;DHT22;3650;53.580;10.094;2022-10-16T08:03:58;15.80;94.00
7218;DHT22;3650;53.580;10.094;2022-10-16T08:06:25;15.90;94.00
7218;DHT22;3650;53.580;10.094;2022-10-16T08:08:53;15.90;94.00
7218;DHT22;3650;53.580;10.094;2022-10-16T08:11:20;15.90;93.80
7218;DHT22;3650;53.580;10.094;2022-10-16T08:13:47;16.00;93.80
7218;DHT22;3650;53.580;10.094;2022-10-16T08:16:13;16.00;93.80
7218;DHT22;3650;53.580;10.094;2022-10-16T08:18:41;16.00;93.80
7218;DHT22;3650;53.580;10.094;2022-10-16T08:21:12;16.00;93.50
7218;DHT22;3650;53.580;10.094;2022-10-16T08:23:39;16.00;93.30
7218;DHT22;3650;53.580;10.094;2022-10-16T08:26:08;16.00;93.30
7218;DHT22;3650;53.580;10.094;2022-10-16T08:28:35;16.10;93.30
7218;DHT22;3650;53.580;10.094;2022-10-16T08:31:06;16.10;93.30
7218;DHT22;3650;53.580;10.094;2022-10-16T08:33:33;16.10;93.30
7218;DHT22;3650;53.580;10.094;2022-10-16T08:36:01;16.10;93.40
7218;DHT22;3650;53.580;10.094;2022-10-16T08:38:28;16.20;93.50
7218;DHT22;3650;53.580;10.094;2022-10-16T08:41:00;16.20;93.40
7218;DHT22;3650;53.580;10.094;2022-10-16T08:43:59;16.20;93.40
7218;DHT22;3650;53.580;10.094;2022-10-16T08:46:37;16.30;93.50
7218;DHT22;3650;53.580;10.094;2022-10-16T08:49:12;16.30;93.40
7218;DHT22;3650;53.580;10.094;2022-10-16T08:51:40;16.30;92.80
7218;DHT22;3650;53.580;10.094;2022-10-16T08:54:21;16.40;92.90
7218;DHT22;3650;53.580;10.094;2022-10-16T08:56:49;16.40;92.40
7218;DHT22;3650;53.580;10.094;2022-10-16T08:59:18;16.50;92.20
7218;DHT22;3650;53.580;10.094;2022-10-16T09:01:47;16.60;92.20
7218;DHT22;3650;53.580;10.094;2022-10-16T09:04:47;16.60;92.00
7218;DHT22;3650;53.580;10.094;2022-10-16T09:07:19;16.60;91.70
7218;DHT22;3650;53.580;10.094;2022-10-16T09:09:58;16.70;91.70
7218;DHT22;3650;53.580;10.094;2022-10-16T09:12:31;16.70;91.60
7218;DHT22;3650;53.580;10.094;2022-10-16T09:15:12;16.70;91.70
7218;DHT22;3650;53.580;10.094;2022-10-16T09:17:49;16.80;91.40
7218;DHT22;3650;53.580;10.094;2022-10-16T09:20:28;16.80;91.30
7218;DHT22;3650;53.580;10.094;2022-10-16T09:23:10;16.80;91.10
7218;DHT22;3650;53.580;10.094;2022-10-16T09:25:39;16.90;91.10
7218;DHT22;3650;53.580;10.094;2022-10-16T09:28:08;16.90;91.30
7218;DHT22;3650;53.580;10.094;2022-10-16T09:30:37;16.90;91.00
7218;DHT22;3650;53.580;10.094;2022-10-16T09:33:05;17.00;91.10
7218;DHT22;3650;53.580;10.094;2022-10-16T09:35:36;17.00;90.80
7218;DHT22;3650;53.580;10.094;2022-10-16T09:38:04;17.00;90.80
7218;DHT22;3650;53.580;10.094;2022-10-16T09:40:32;17.10;90.60
7218;DHT22;3650;53.580;10.094;2022-10-16T09:43:15;17.10;89.50
7218;DHT22;3650;53.580;10.094;2022-10-16T09:45:55;17.20;89.20
7218;DHT22;3650;53.580;10.094;2022-10-16T09:48:23;17.10;88.50
7218;DHT22;3650;53.580;10.094;2022-10-16T09:50:59;17.20;87.10
7218;DHT22;3650;53.580;10.094;2022-10-16T09:53:39;17.20;87.00
7218;DHT22;3650;53.580;10.094;2022-10-16T09:56:06;17.20;85.50
7218;DHT22;3650;53.580;10.094;2022-10-16T09:58:34;17.20;85.80
7218;DHT22;3650;53.580;10.094;2022-10-16T10:01:02;17.20;85.70
7218;DHT22;3650;53.580;10.094;2022-10-16T10:03:37;17.20;85.00
7218;DHT22;3650;53.580;10.094;2022-10-16T10:06:16;17.30;84.90
7218;DHT22;3650;53.580;10.094;2022-10-16T10:08:59;17.30;84.20
7218;DHT22;3650;53.580;10.094;2022-10-16T10:11:44;17.30;83.80
7218;DHT22;3650;53.580;10.094;2022-10-16T10:14:20;17.30;83.80
7218;DHT22;3650;53.580;10.094;2022-10-16T10:16:52;17.30;83.30
7218;DHT22;3650;53.580;10.094;2022-10-16T10:19:20;17.30;82.80
7218;DHT22;3650;53.580;10.094;2022-10-16T10:21:48;17.40;82.80
7218;DHT22;3650;53.580;10.094;2022-10-16T10:24:17;17.40;83.00
7218;DHT22;3650;53.580;10.094;2022-10-16T10:26:50;17.50;80.00
7218;DHT22;3650;53.580;10.094;2022-10-16T10:29:27;17.50;80.70
7218;DHT22;3650;53.580;10.094;2022-10-16T10:32:05;17.50;81.00
7218;DHT22;3650;53.580;10.094;2022-10-16T10:34:45;17.50;79.90
7218;DHT22;3650;53.580;10.094;2022-10-16T10:37:25;17.50;79.90
7218;DHT22;3650;53.580;10.094;2022-10-16T10:40:00;17.50;81.00
7218;DHT22;3650;53.580;10.094;2022-10-16T10:42:31;17.50;80.20
7218;DHT22;3650;53.580;10.094;2022-10-16T10:45:17;17.50;81.30
7218;DHT22;3650;53.580;10.094;2022-10-16T10:47:58;17.60;81.80
7218;DHT22;3650;53.580;10.094;2022-10-16T10:50:30;17.60;80.00
7218;DHT22;3650;53.580;10.094;2022-10-16T10:53:07;17.60;80.00
7218;DHT22;3650;53.580;10.094;2022-10-16T10:55:43;17.70;80.90
7218;DHT22;3650;53.580;10.094;2022-10-16T10:58:32;17.70;81.20
7218;DHT22;3650;53.580;10.094;2022-10-16T11:01:08;17.70;80.00
7218;DHT22;3650;53.580;10.094;2022-10-16T11:03:54;17.70;79.70
7218;DHT22;3650;53.580;10.094;2022-10-16T11:06:26;17.80;77.20
7218;DHT22;3650;53.580;10.094;2022-10-16T11:08:59;17.70;76.50
7218;DHT22;3650;53.580;10.094;2022-10-16T11:11:32;17.80;74.40
7218;DHT22;3650;53.580;10.094;2022-10-16T11:14:04;17.80;75.00
7218;DHT22;3650;53.580;10.094;2022-10-16T11:16:37;17.80;71.70
7218;DHT22;3650;53.580;10.094;2022-10-16T11:19:13;17.80;72.40
7218;DHT22;3650;53.580;10.094;2022-10-16T11:21:47;17.80;69.80
7218;DHT22;3650;53.580;10.094;2022-10-16T11:24:20;17.80;68.70
7218;DHT22;3650;53.580;10.094;2022-10-16T11:26:51;17.80;68.70
7218;DHT22;3650;53.580;10.094;2022-10-16T11:29:25;17.80;69.70
7218;DHT22;3650;53.580;10.094;2022-10-16T11:31:56;17.90;67.30
7218;DHT22;3650;53.580;10.094;2022-10-16T11:34:29;17.90;66.40
7218;DHT22;3650;53.580;10.094;2022-10-16T11:37:02;18.00;66.60
7218;DHT22;3650;53.580;10.094;2022-10-16T11:39:31;18.00;67.10
7218;DHT22;3650;53.580;10.094;2022-10-16T11:42:02;18.00;67.70
7218;DHT22;3650;53.580;10.094;2022-10-16T11:44:51;18.00;66.20
7218;DHT22;3650;53.580;10.094;2022-10-16T11:47:27;18.00;65.30
7218;DHT22;3650;53.580;10.094;2022-10-16T11:50:02;18.00;65.60
7218;DHT22;3650;53.580;10.094;2022-10-16T11:52:38;18.00;66.70
7218;DHT22;3650;53.580;10.094;2022-10-16T11:55:14;18.00;65.00
7218;DHT22;3650;53.580;10.094;2022-10-16T11:57:45;18.10;64.40
7218;DHT22;3650;53.580;10.094;2022-10-16T12:00:21;18.10;64.10
7218;DHT22;3650;53.580;10.094;2022-10-16T12:02:55;18.00;64.10
7218;DHT22;3650;53.580;10.094;2022-10-16T12:05:33;18.10;64.40
7218;DHT22;3650;53.580;10.094;2022-10-16T12:08:06;18.10;64.70
7218;DHT22;3650;53.580;10.094;2022-10-16T12:10:35;18.10;65.30
7218;DHT22;3650;53.580;10.094;2022-10-16T12:13:03;18.10;64.30
7218;DHT22;3650;53.580;10.094;2022-10-16T12:15:32;18.10;63.40
7218;DHT22;3650;53.580;10.094;2022-10-16T12:18:00;18.00;64.20
7218;DHT22;3650;53.580;10.094;2022-10-16T12:20:30;18.00;64.10
7218;DHT22;3650;53.580;10.094;2022-10-16T12:23:00;18.10;64.00
7218;DHT22;3650;53.580;10.094;2022-10-16T12:25:30;18.10;63.70
7218;DHT22;3650;53.580;10.094;2022-10-16T12:28:00;18.10;63.50
7218;DHT22;3650;53.580;10.094;2022-10-16T12:30:29;18.10;63.20
7218;DHT22;3650;53.580;10.094;2022-10-16T12:32:58;18.10;63.70
7218;DHT22;3650;53.580;10.094;2022-10-16T12:35:29;18.10;62.90
7218;DHT22;3650;53.580;10.094;2022-10-16T12:38:11;18.10;63.00
7218;DHT22;3650;53.580;10.094;2022-10-16T12:40:42;18.10;62.40
7218;DHT22;3650;53.580;10.094;2022-10-16T12:43:25;18.10;61.40
7218;DHT22;3650;53.580;10.094;2022-10-16T12:46:04;18.10;60.00
7218;DHT22;3650;53.580;10.094;2022-10-16T12:48:46;18.10;58.80
7218;DHT22;3650;53.580;10.094;2022-10-16T12:51:23;18.10;58.70
7218;DHT22;3650;53.580;10.094;2022-10-16T12:53:58;18.10;58.30
7218;DHT22;3650;53.580;10.094;2022-10-16T12:56:32;18.00;57.20
7218;DHT22;3650;53.580;10.094;2022-10-16T12:59:11;18.10;57.20
7218;DHT22;3650;53.580;10.094;2022-10-16T13:01:54;18.10;56.70
7218;DHT22;3650;53.580;10.094;2022-10-16T13:04:55;18.10;58.00
7218;DHT22;3650;53.580;10.094;2022-10-16T13:07:39;18.10;54.10
7218;DHT22;3650;53.580;10.094;2022-10-16T13:10:17;18.10;52.10
7218;DHT22;3650;53.580;10.094;2022-10-16T13:13:03;18.10;54.30
7218;DHT22;3650;53.580;10.094;2022-10-16T13:15:47;18.10;55.50
7218;DHT22;3650;53.580;10.094;2022-10-16T13:18:22;18.10;53.90
7218;DHT22;3650;53.580;10.094;2022-10-16T13:21:00;18.10;54.40
7218;DHT22;3650;53.580;10.094;2022-10-16T13:23:35;18.00;55.50
7218;DHT22;3650;53.580;10.094;2022-10-16T13:26:11;18.00;56.60
7218;DHT22;3650;53.580;10.094;2022-10-16T13:28:42;18.00;56.00
7218;DHT22;3650;53.580;10.094;2022-10-16T13:31:14;18.00;55.10
7218;DHT22;3650;53.580;10.094;2022-10-16T13:33:45;18.00;55.80
7218;DHT22;3650;53.580;10.094;2022-10-16T13:36:22;18.00;54.20
7218;DHT22;3650;53.580;10.094;2022-10-16T13:39:00;18.00;56.30
7218;DHT22;3650;53.580;10.094;2022-10-16T13:41:30;18.00;56.20
7218;DHT22;3650;53.580;10.094;2022-10-16T13:43:57;18.00;54.70
7218;DHT22;3650;53.580;10.094;2022-10-16T13:46:25;18.00;53.80
7218;DHT22;3650;53.580;10.094;2022-10-16T13:48:58;18.00;54.70
7218;DHT22;3650;53.580;10.094;2022-10-16T13:51:26;18.00;54.00
7218;DHT22;3650;53.580;10.094;2022-10-16T13:53:55;18.00;53.40
7218;DHT22;3650;53.580;10.094;2022-10-16T13:56:25;18.00;53.50
7218;DHT22;3650;53.580;10.094;2022-10-16T13:58:59;18.00;54.00
7218;DHT22;3650;53.580;10.094;2022-10-16T14:01:28;18.00;53.60
7218;DHT22;3650;53.580;10.094;2022-10-16T14:04:01;18.00;55.30
7218;DHT22;3650;53.580;10.094;2022-10-16T14:06:29;18.00;54.50
7218;DHT22;3650;53.580;10.094;2022-10-16T14:09:00;18.10;54.70
7218;DHT22;3650;53.580;10.094;2022-10-16T14:11:28;18.00;52.90
7218;DHT22;3650;53.580;10.094;2022-10-16T14:13:55;18.10;53.70
7218;DHT22;3650;53.580;10.094;2022-10-16T14:16:24;18.00;53.30
7218;DHT22;3650;53.580;10.094;2022-10-16T14:18:57;18.10;53.30
7218;DHT22;3650;53.580;10.094;2022-10-16T14:21:24;18.10;52.40
7218;DHT22;3650;53.580;10.094;2022-10-16T14:23:52;18.10;52.40
7218;DHT22;3650;53.580;10.094;2022-10-16T14:26:22;18.10;50.90
7218;DHT22;3650;53.580;10.094;2022-10-16T14:29:01;18.10;52.30
7218;DHT22;3650;53.580;10.094;2022-10-16T14:31:31;18.10;52.60
7218;DHT22;3650;53.580;10.094;2022-10-16T14:33:59;18.10;52.40
7218;DHT22;3650;53.580;10.094;2022-10-16T14:36:27;18.10;53.60
7218;DHT22;3650;53.580;10.094;2022-10-16T14:39:00;18.10;52.50
7218;DHT22;3650;53.580;10.094;2022-10-16T14:41:30;18.10;52.00
7218;DHT22;3650;53.580;10.094;2022-10-16T14:44:00;18.10;52.10
7218;DHT22;3650;53.580;10.094;2022-10-16T14:46:34;18.10;52.60
7218;DHT22;3650;53.580;10.094;2022-10-16T14:49:15;18.20;52.50
7218;DHT22;3650;53.580;10.094;2022-10-16T14:51:42;18.10;52.70
7218;DHT22;3650;53.580;10.094;2022-10-16T14:54:11;18.10;53.60
7218;DHT22;3650;53.580;10.094;2022-10-16T14:56:46;18.10;53.30
7218;DHT22;3650;53.580;10.094;2022-10-16T14:59:16;18.10;53.90
7218;DHT22;3650;53.580;10.094;2022-10-16T15:01:44;18.10;54.00
7218;DHT22;3650;53.580;10.094;2022-10-16T15:04:12;18.10;53.40
7218;DHT22;3650;53.580;10.094;2022-10-16T15:06:39;18.10;53.40
7218;DHT22;3650;53.580;10.094;2022-10-16T15:09:06;18.10;53.10
7218;DHT22;3650;53.580;10.094;2022-10-16T15:11:33;18.10;51.60
7218;DHT22;3650;53.580;10.094;2022-10-16T15:14:02;18.10;51.70
7218;DHT22;3650;53.580;10.094;2022-10-16T15:16:29;18.10;52.70
7218;DHT22;3650;53.580;10.094;2022-10-16T15:18:56;18.10;52.40
7218;DHT22;3650;53.580;10.094;2022-10-16T15:21:26;18.10;52.40
7218;DHT22;3650;53.580;10.094;2022-10-16T15:23:53;18.10;53.20
7218;DHT22;3650;53.580;10.094;2022-10-16T15:26:22;18.10;53.10
7218;DHT22;3650;53.580;10.094;2022-10-16T15:28:49;18.10;53.20
7218;DHT22;3650;53.580;10.094;2022-10-16T15:31:17;18.10;55.30
7218;DHT22;3650;53.580;10.094;2022-10-16T15:33:44;18.00;53.30
7218;DHT22;3650;53.580;10.094;2022-10-16T15:36:24;18.00;54.00
7218;DHT22;3650;53.580;10.094;2022-10-16T15:38:51;18.00;53.80
7218;DHT22;3650;53.580;10.094;2022-10-16T15:41:19;18.00;53.30
7218;DHT22;3650;53.580;10.094;2022-10-16T15:43:48;17.90;52.80
7218;DHT22;3650;53.580;10.094;2022-10-16T15:46:17;18.00;53.40
7218;DHT22;3650;53.580;10.094;2022-10-16T15:48:44;17.90;53.10
7218;DHT22;3650;53.580;10.094;2022-10-16T15:51:10;17.90;53.50
7218;DHT22;3650;53.580;10.094;2022-10-16T15:53:37;17.90;52.80
7218;DHT22;3650;53.580;10.094;2022-10-16T15:56:05;17.90;52.40
7218;DHT22;3650;53.580;10.094;2022-10-16T15:58:33;17.90;52.40
7218;DHT22;3650;53.580;10.094;2022-10-16T16:01:01;17.80;52.20
7218;DHT22;3650;53.580;10.094;2022-10-16T16:03:30;17.80;53.00
7218;DHT22;3650;53.580;10.094;2022-10-16T16:06:02;17.80;52.80